Time;durP1;ratioP1;P1;durP2;ratioP2;P2;SDS_P1;SDS_P2;PMS_P1;PMS_P2;Temp;Humidity;BMP_temperature;BMP_pressure;BME280_temperature;BME280_humidity;BME280_pressure;Samples;Min_cycle;Max_cycle;Signal;HPM_P1;HPM_P2
2023/09/21 00:00:53;;;;;;;;;;;;;;;;;;6288697;22;20358;-86
2023/09/21 00:03:24;;;;;;;;;;;;;;;;;;6265765;22;19918;-86
2023/09/21 00:05:52;;;;;;;;;;;;;;;;;;6287954;22;19926;-85
2023/09/21 00:08:23;;;;;;;;;;;;;;;;;;6263983;22;20232;-86
2023/09/21 00:10:50;;;;;;;;;;;;;;;;;;6266152;22;19999;-86
2023/09/21 00:13:17;;;;;;;;;;;;;;;;;;6288835;22;19950;-86
2023/09/21 00:15:45;;;;;;;;;;;;;;;;;;6287937;22;20747;-86
2023/09/21 00:18:13;;;;;;;;;;;;;;;;;;6291925;22;19915;-86
2023/09/21 00:20:52;;;;;;;;;;;;;;;;;;6288969;22;19985;-85
2023/09/21 00:23:30;;;;;;;;;;;;;;;;;;6267193;22;19919;-86
2023/09/21 00:26:00;;;;;;;;;;;;;;;;;;6265110;22;20542;-86
2023/09/21 00:28:27;;;;;;;;;;;;;;;;;;6262282;22;19976;-86
2023/09/21 00:30:57;;;;;;;;;;;;;;;;;;6267086;22;19919;-85
2023/09/21 00:33:25;;;;;;;;;;;;;;;;;;6289436;22;19919;-86
2023/09/21 00:35:52;;;;;;;;;;;;;;;;;;6293717;22;19914;-86
2023/09/21 00:38:18;;;;;;;;;;;;;;;;;;6262115;22;19918;-86
2023/09/21 00:40:46;;;;;;;;;;;;;;;;;;6287689;22;19926;-86
2023/09/21 00:43:13;;;;;;;;;;;;;;;;;;6267253;22;19985;-86
2023/09/21 00:45:40;;;;;;;;;;;;;;;;;;6290801;22;20269;-85
2023/09/21 00:48:09;;;;;;;;;;;;;;;;;;6292248;22;19985;-86
2023/09/21 00:50:56;;;;;;;;;;;;;;;;;;;;;
2023/09/21 00:53:27;;;;;;;;;;;;;;;;;;6286109;22;19918;-86
2023/09/21 00:56:07;;;;;;;;;;;;;;;;;;;;;
2023/09/21 00:58:34;;;;;;;;;;;;;;;;;;6290422;22;20278;-86
2023/09/21 01:01:02;;;;;;;;;;;;;;;;;;6265928;22;19927;-86
2023/09/21 01:03:29;;;;;;;;;;;;;;;;;;6288522;22;19925;-85
2023/09/21 01:06:19;;;;;;;;;;;;;;;;;;;;;
2023/09/21 01:08:46;;;;;;;;;;;;;;;;;;6283511;22;19919;-86
2023/09/21 01:11:15;;;;;;;;;;;;;;;;;;6288222;22;19963;-86
2023/09/21 01:13:42;;;;;;;;;;;;;;;;;;6287063;22;20354;-86
2023/09/21 01:16:13;;;;;;;;;;;;;;;;;;6268486;22;19934;-86
2023/09/21 01:18:43;;;;;;;;;;;;;;;;;;6292664;22;19934;-86
2023/09/21 01:21:13;;;;;;;;;;;;;;;;;;6296006;22;20545;-86
2023/09/21 01:27:03;;;;;;;;;;;;;;;;;;;;;
2023/09/21 01:29:32;;;;;;;;;;;;;;;;;;6285421;22;19923;-86
2023/09/21 01:34:55;;;;;;;;;;;;;;;;;;6280442;22;19957;-87
2023/09/21 01:37:22;;;;;;;;;;;;;;;;;;6268369;22;19919;-86
2023/09/21 01:45:48;;;;;;;;;;;;;;;;;;6289218;22;20362;-86
2023/09/21 01:48:20;;;;;;;;;;;;;;;;;;6269648;22;19922;-86
2023/09/21 01:50:57;;;;;;;;;;;;;;;;;;6291454;22;20644;-86
2023/09/21 01:53:24;;;;;;;;;;;;;;;;;;6264864;22;19919;-86
2023/09/21 01:59:03;;;;;;;;;;;;;;;;;;6294959;22;20265;-86
2023/09/21 02:01:31;;;;;;;;;;;;;;;;;;6267273;22;19987;-86
2023/09/21 02:03:59;;;;;;;;;;;;;;;;;;6270849;22;19924;-86
2023/09/21 02:06:26;;;;;;;;;;;;;;;;;;6296891;22;19918;-86
2023/09/21 02:09:02;;;;;;;;;;;;;;;;;;6299884;22;20090;-86
2023/09/21 02:11:47;;;;;;;;;;;;;;;;;;6289726;22;19924;-86
2023/09/21 02:14:14;;;;;;;;;;;;;;;;;;6271236;22;19918;-86
2023/09/21 02:16:41;;;;;;;;;;;;;;;;;;6267206;22;19923;-86
2023/09/21 02:21:43;;;;;;;;;;;;;;;;;;6294430;22;20362;-86
2023/09/21 02:24:11;;;;;;;;;;;;;;;;;;6291647;22;19962;-85
2023/09/21 02:26:38;;;;;;;;;;;;;;;;;;6265321;22;20344;-86
2023/09/21 02:29:40;;;;;;;;;;;;;;;;;;6243263;22;19922;-86
2023/09/21 02:32:10;;;;;;;;;;;;;;;;;;6292630;22;19926;-86
2023/09/21 02:34:37;;;;;;;;;;;;;;;;;;6265873;22;19941;-86
2023/09/21 02:37:06;;;;;;;;;;;;;;;;;;6293603;22;19923;-86
2023/09/21 02:40:14;;;;;;;;;;;;;;;;;;6263660;22;19997;-86
2023/09/21 02:42:37;;;;;;;;;;;;;;;;;;6287299;22;20224;-86
2023/09/21 02:45:29;;;;;;;;;;;;;;;;;;6268466;22;20289;-85
2023/09/21 02:48:00;;;;;;;;;;;;;;;;;;6268398;22;19918;-86
2023/09/21 02:50:32;;;;;;;;;;;;;;;;;;6265105;22;19940;-86
2023/09/21 02:53:17;;;;;;;;;;;;;;;;;;6270182;22;19942;-86
2023/09/21 02:55:48;;;;;;;;;;;;;;;;;;6239353;22;19923;-86
2023/09/21 02:58:22;;;;;;;;;;;;;;;;;;6242209;22;19918;-86
2023/09/21 03:00:51;;;;;;;;;;;;;;;;;;6295194;22;19919;-86
2023/09/21 03:03:17;;;;;;;;;;;;;;;;;;6264915;22;19915;-86
2023/09/21 03:05:52;;;;;;;;;;;;;;;;;;6239353;22;19924;-86
2023/09/21 03:08:22;;;;;;;;;;;;;;;;;;6242386;22;19925;-86
2023/09/21 03:11:11;;;;;;;;;;;;;;;;;;6294794;22;19987;-86
2023/09/21 03:13:38;;;;;;;;;;;;;;;;;;6238222;22;19926;-86
2023/09/21 03:16:10;;;;;;;;;;;;;;;;;;6266317;22;20032;-86
2023/09/21 03:18:41;;;;;;;;;;;;;;;;;;6239808;22;19919;-86
2023/09/21 03:21:08;;;;;;;;;;;;;;;;;;6246530;22;19923;-86
2023/09/21 03:23:34;;;;;;;;;;;;;;;;;;6261467;22;20025;-86
2023/09/21 03:26:00;;;;;;;;;;;;;;;;;;6294033;22;20354;-86
2023/09/21 03:28:28;;;;;;;;;;;;;;;;;;6260546;22;20012;-85
2023/09/21 03:31:06;;;;;;;;;;;;;;;;;;6290529;22;19926;-86
2023/09/21 03:33:36;;;;;;;;;;;;;;;;;;6260626;22;19919;-86
2023/09/21 03:36:03;;;;;;;;;;;;;;;;;;6293150;22;20017;-86
2023/09/21 03:38:29;;;;;;;;;;;;;;;;;;6263179;22;20602;-86
2023/09/21 03:40:55;;;;;;;;;;;;;;;;;;6290783;22;19963;-86
2023/09/21 03:43:23;;;;;;;;;;;;;;;;;;6265452;22;19915;-85
2023/09/21 03:48:35;;;;;;;;;;;;;;;;;;6290085;22;20019;-83
2023/09/21 03:51:04;;;;;;;;;;;;;;;;;;6289110;22;20418;-83
2023/09/21 03:53:33;;;;;;;;;;;;;;;;;;6282261;22;19919;-83
2023/09/21 03:56:01;;;;;;;;;;;;;;;;;;6290311;22;19919;-83
2023/09/21 03:58:28;;;;;;;;;;;;;;;;;;6262641;22;19919;-83
2023/09/21 04:00:54;;;;;;;;;;;;;;;;;;6264801;22;19984;-83
2023/09/21 04:03:26;;;;;;;;;;;;;;;;;;6262905;22;19990;-83
2023/09/21 04:05:52;;;;;;;;;;;;;;;;;;6288079;22;19978;-83
2023/09/21 04:08:18;;;;;;;;;;;;;;;;;;6263696;22;19918;-83
2023/09/21 04:10:46;;;;;;;;;;;;;;;;;;6263986;22;19922;-83
2023/09/21 04:13:25;;;;;;;;;;;;;;;;;;6237769;22;19925;-83
2023/09/21 04:15:51;;;;;;;;;;;;;;;;;;6265160;22;20005;-83
2023/09/21 04:21:09;;;;;;;;;;;;;;;;;;6282304;22;19923;-83
2023/09/21 04:23:35;;;;;;;;;;;;;;;;;;6287370;22;19921;-83
2023/09/21 04:26:01;;;;;;;;;;;;;;;;;;6288468;22;19923;-83
2023/09/21 04:28:30;;;;;;;;;;;;;;;;;;6288534;22;19929;-83
2023/09/21 04:31:14;;;;;;;;;;;;;;;;;;6288664;22;19950;-83
2023/09/21 04:33:53;;;;;;;;;;;;;;;;;;;;;
2023/09/21 04:36:19;;;;;;;;;;;;;;;;;;6292462;22;20294;-83
2023/09/21 04:42:06;;;;;;;;;;;;;;;;;;6301115;22;19941;-83
2023/09/21 04:44:45;;;;;;;;;;;;;;;;;;6299195;22;19961;-83
2023/09/21 04:53:09;;;;;;;;;;;;;;;;;;6167437;23;19954;-83
2023/09/21 04:55:36;;;;;;;;;;;;;;;;;;6258022;22;19950;-83
2023/09/21 04:58:02;;;;;;;;;;;;;;;;;;6264051;22;20267;-83
2023/09/21 05:00:28;;;;;;;;;;;;;;;;;;6259259;22;19919;-83
2023/09/21 05:02:54;;;;;;;;;;;;;;;;;;6287129;22;19953;-83
2023/09/21 05:05:24;;;;;;;;;;;;;;;;;;6263010;22;20352;-83
2023/09/21 05:11:07;;;;;;;;;;;;;;;;;;6293839;22;20344;-83
2023/09/21 05:13:36;;;;;;;;;;;;;;;;;;6284068;22;20362;-83
2023/09/21 05:16:03;;;;;;;;;;;;;;;;;;6285786;22;20039;-83
2023/09/21 05:21:33;;;;;;;;;;;;;;;;;;6295180;22;20019;-84
2023/09/21 05:30:31;;;;;;;;;;;;;;;;;;6055575;23;19968;-85
2023/09/21 05:33:03;;;;;;;;;;;;;;;;;;6022783;23;20028;-84
2023/09/21 05:35:29;;;;;;;;;;;;;;;;;;6174949;22;20173;-84
2023/09/21 05:41:06;;;;;;;;;;;;;;;;;;6216572;22;19942;-85
2023/09/21 05:43:32;;;;;;;;;;;;;;;;;;6290414;22;19931;-85
2023/09/21 05:45:58;;;;;;;;;;;;;;;;;;6267688;22;19923;-85
2023/09/21 05:48:24;;;;;;;;;;;;;;;;;;6260626;22;19950;-84
2023/09/21 05:50:51;;;;;;;;;;;;;;;;;;6265048;22;19915;-84
2023/09/21 05:53:33;;;;;;;;;;;;;;;;;;;;;
2023/09/21 05:56:05;;;;;;;;;;;;;;;;;;6286672;22;19927;-85
2023/09/21 05:58:32;;;;;;;;;;;;;;;;;;6262525;22;19919;-84
2023/09/21 06:01:02;;;;;;;;;;;;;;;;;;6265522;22;19989;-84
2023/09/21 06:03:28;;;;;;;;;;;;;;;;;;6261552;22;20664;-84
2023/09/21 06:05:57;;;;;;;;;;;;;;;;;;6267122;22;19938;-84
2023/09/21 06:08:46;;;;;;;;;;;;;;;;;;6290501;22;19921;-84
2023/09/21 06:11:13;;;;;;;;;;;;;;;;;;6265517;22;19942;-84
2023/09/21 06:13:39;;;;;;;;;;;;;;;;;;6263585;22;19919;-84
2023/09/21 06:19:19;;;;;;;;;;;;;;;;;;6264876;22;19998;-84
2023/09/21 06:21:47;;;;;;;;;;;;;;;;;;6292486;22;19954;-84
2023/09/21 06:27:10;;;;;;;;;;;;;;;;;;6294546;22;19919;-84
2023/09/21 06:32:24;;;;;;;;;;;;;;;;;;6295348;22;20058;-84
2023/09/21 06:34:51;;;;;;;;;;;;;;;;;;6294359;22;19919;-85
2023/09/21 06:37:18;;;;;;;;;;;;;;;;;;6267172;22;19942;-84
2023/09/21 06:39:44;;;;;;;;;;;;;;;;;;6264768;22;19926;-84
2023/09/21 06:42:15;;;;;;;;;;;;;;;;;;6296672;22;20340;-84
2023/09/21 06:44:41;;;;;;;;;;;;;;;;;;6264183;22;19922;-85
2023/09/21 06:47:21;;;;;;;;;;;;;;;;;;6267307;22;19915;-84
2023/09/21 06:49:49;;;;;;;;;;;;;;;;;;6268717;22;19954;-85
2023/09/21 06:52:17;;;;;;;;;;;;;;;;;;6268584;22;19925;-85
2023/09/21 06:54:44;;;;;;;;;;;;;;;;;;6267134;22;19934;-85
2023/09/21 06:57:10;;;;;;;;;;;;;;;;;;6270770;22;20020;-85
2023/09/21 06:59:36;;;;;;;;;;;;;;;;;;6266287;22;19919;-84
2023/09/21 07:02:03;;;;;;;;;;;;;;;;;;6293530;22;19919;-84
2023/09/21 07:04:36;;;;;;;;;;;;;;;;;;6291744;22;19923;-85
2023/09/21 07:07:06;;;;;;;;;;;;;;;;;;6268643;22;19919;-84
2023/09/21 07:09:32;;;;;;;;;;;;;;;;;;6268104;22;20289;-85
2023/09/21 07:11:58;;;;;;;;;;;;;;;;;;6266813;22;20029;-84
2023/09/21 07:14:24;;;;;;;;;;;;;;;;;;6266323;22;19918;-85
2023/09/21 07:16:50;;;;;;;;;;;;;;;;;;6295022;22;19968;-84
2023/09/21 07:19:16;;;;;;;;;;;;;;;;;;6296645;22;19919;-86
2023/09/21 07:21:42;;;;;;;;;;;;;;;;;;6292232;22;19933;-86
2023/09/21 07:24:08;;;;;;;;;;;;;;;;;;6295117;22;19968;-87
2023/09/21 07:26:34;;;;;;;;;;;;;;;;;;6293212;22;19919;-87
2023/09/21 07:29:00;;;;;;;;;;;;;;;;;;6270373;22;19919;-87
2023/09/21 07:31:26;;;;;;;;;;;;;;;;;;6292863;22;19923;-86
2023/09/21 07:33:56;;;;;;;;;;;;;;;;;;6267187;22;20331;-87
2023/09/21 07:36:22;;;;;;;;;;;;;;;;;;6268241;22;19951;-87
2023/09/21 07:38:48;;;;;;;;;;;;;;;;;;6295047;22;20239;-87
2023/09/21 07:41:14;;;;;;;;;;;;;;;;;;6268073;22;19946;-87
2023/09/21 07:43:41;;;;;;;;;;;;;;;;;;6266325;22;20327;-87
2023/09/21 07:46:06;;;;;;;;;;;;;;;;;;6270021;22;19923;-86
2023/09/21 07:51:39;;;;;;;;;;;;;;;;;;6301563;22;19917;-87
2023/09/21 07:54:06;;;;;;;;;;;;;;;;;;6296151;22;19926;-87
2023/09/21 07:56:32;;;;;;;;;;;;;;;;;;6292342;22;20521;-87
2023/09/21 07:58:58;;;;;;;;;;;;;;;;;;6269521;22;19915;-86
2023/09/21 08:01:27;;;;;;;;;;;;;;;;;;6289644;22;19919;-87
2023/09/21 08:03:54;;;;;;;;;;;;;;;;;;6269836;22;19922;-87
2023/09/21 08:06:26;;;;;;;;;;;;;;;;;;6269193;22;19922;-87
2023/09/21 08:09:24;;;;;;;;;;;;;;;;;;6295254;22;20200;-87
2023/09/21 08:11:50;;;;;;;;;;;;;;;;;;6268021;22;20522;-87
2023/09/21 08:14:16;;;;;;;;;;;;;;;;;;6293781;22;20340;-87
2023/09/21 08:16:42;;;;;;;;;;;;;;;;;;6263859;22;20229;-86
2023/09/21 08:19:11;;;;;;;;;;;;;;;;;;6270436;22;19918;-86
2023/09/21 08:24:44;;;;;;;;;;;;;;;;;;6304283;22;19999;-86
2023/09/21 08:27:29;;;;;;;;;;;;;;;;;;;;;
2023/09/21 08:32:36;;;;;;;;;;;;;;;;;;6359626;22;20002;-86
2023/09/21 08:35:02;;;;;;;;;;;;;;;;;;6332198;22;19918;-86
2023/09/21 08:37:28;;;;;;;;;;;;;;;;;;6331069;22;19918;-87
2023/09/21 08:39:54;;;;;;;;;;;;;;;;;;6307319;22;19921;-86
2023/09/21 08:42:25;;;;;;;;;;;;;;;;;;6329008;22;19938;-86
2023/09/21 08:44:51;;;;;;;;;;;;;;;;;;6307633;22;20292;-86
2023/09/21 08:47:17;;;;;;;;;;;;;;;;;;6331410;22;19918;-87
2023/09/21 08:49:43;;;;;;;;;;;;;;;;;;6329952;22;19949;-87
2023/09/21 08:52:09;;;;;;;;;;;;;;;;;;6327628;22;19914;-87
2023/09/21 08:54:35;;;;;;;;;;;;;;;;;;6304289;22;19921;-87
2023/09/21 08:57:01;;;;;;;;;;;;;;;;;;6331413;22;19918;-87
2023/09/21 08:59:27;;;;;;;;;;;;;;;;;;6304604;22;19963;-87
2023/09/21 09:01:55;;;;;;;;;;;;;;;;;;6358471;22;20021;-87
2023/09/21 09:04:26;;;;;;;;;;;;;;;;;;6326729;22;19961;-87
2023/09/21 09:06:52;;;;;;;;;;;;;;;;;;6330635;22;19953;-87
2023/09/21 09:09:19;;;;;;;;;;;;;;;;;;6332704;22;19921;-88
2023/09/21 09:11:46;;;;;;;;;;;;;;;;;;6328702;22;19918;-87
2023/09/21 09:14:12;;;;;;;;;;;;;;;;;;6333192;22;20284;-88
2023/09/21 09:16:38;;;;;;;;;;;;;;;;;;6302353;22;19981;-88
2023/09/21 09:19:08;;;;;;;;;;;;;;;;;;6304862;22;19918;-87
2023/09/21 09:21:35;;;;;;;;;;;;;;;;;;6325081;22;20326;-87
2023/09/21 09:24:02;;;;;;;;;;;;;;;;;;6301846;22;19925;-87
2023/09/21 09:26:28;;;;;;;;;;;;;;;;;;6297279;22;19930;-88
2023/09/21 09:28:54;;;;;;;;;;;;;;;;;;6276313;22;19922;-88
2023/09/21 09:31:21;;;;;;;;;;;;;;;;;;6301564;22;19933;-88
2023/09/21 09:33:48;;;;;;;;;;;;;;;;;;6300376;22;19923;-87
2023/09/21 09:36:14;;;;;;;;;;;;;;;;;;6331018;22;19997;-88
2023/09/21 09:38:40;;;;;;;;;;;;;;;;;;6275635;22;20346;-88
2023/09/21 09:41:06;;;;;;;;;;;;;;;;;;6277532;22;19918;-88
2023/09/21 09:43:32;;;;;;;;;;;;;;;;;;6300037;22;19919;-88
2023/09/21 09:45:58;;;;;;;;;;;;;;;;;;6304312;22;20388;-88
2023/09/21 09:48:26;;;;;;;;;;;;;;;;;;6329405;22;20336;-88
2023/09/21 09:50:54;;;;;;;;;;;;;;;;;;6329636;22;20017;-87
2023/09/21 09:53:23;;;;;;;;;;;;;;;;;;6301153;22;19926;-88
2023/09/21 09:55:50;;;;;;;;;;;;;;;;;;6303129;22;19924;-87
2023/09/21 09:58:16;;;;;;;;;;;;;;;;;;6329846;22;20335;-88
2023/09/21 10:00:44;;;;;;;;;;;;;;;;;;6327167;22;19926;-87
2023/09/21 10:03:10;;;;;;;;;;;;;;;;;;6330594;22;19930;-88
2023/09/21 10:05:36;;;;;;;;;;;;;;;;;;6300211;22;20323;-87
2023/09/21 10:08:03;;;;;;;;;;;;;;;;;;6277589;22;19922;-87
2023/09/21 10:10:30;;;;;;;;;;;;;;;;;;6327357;22;19922;-87
2023/09/21 10:12:56;;;;;;;;;;;;;;;;;;6304136;22;19922;-87
2023/09/21 10:15:24;;;;;;;;;;;;;;;;;;6299290;22;21378;-87
2023/09/21 10:17:50;;;;;;;;;;;;;;;;;;6328397;22;19922;-87
2023/09/21 10:20:24;;;;;;;;;;;;;;;;;;6330461;22;20425;-88
2023/09/21 10:22:51;;;;;;;;;;;;;;;;;;6330570;22;19971;-88
2023/09/21 10:25:18;;;;;;;;;;;;;;;;;;6277154;22;19926;-87
2023/09/21 10:27:46;;;;;;;;;;;;;;;;;;6325850;22;19926;-88
2023/09/21 10:30:15;;;;;;;;;;;;;;;;;;6276982;22;19992;-87
2023/09/21 10:32:41;;;;;;;;;;;;;;;;;;6328711;22;20914;-87
2023/09/21 10:35:08;;;;;;;;;;;;;;;;;;6303897;22;19915;-87
2023/09/21 10:37:36;;;;;;;;;;;;;;;;;;6298335;22;19919;-87
2023/09/21 10:40:02;;;;;;;;;;;;;;;;;;6276923;22;19918;-88
2023/09/21 10:42:29;;;;;;;;;;;;;;;;;;6326947;22;19924;-88
2023/09/21 10:44:55;;;;;;;;;;;;;;;;;;6277632;22;20001;-88
2023/09/21 10:47:21;;;;;;;;;;;;;;;;;;6299980;22;20366;-89
2023/09/21 10:49:47;;;;;;;;;;;;;;;;;;6276809;22;20225;-88
2023/09/21 10:52:13;;;;;;;;;;;;;;;;;;6301245;22;20077;-88
2023/09/21 10:54:39;;;;;;;;;;;;;;;;;;6273861;22;19914;-88
2023/09/21 10:57:05;;;;;;;;;;;;;;;;;;6302245;22;19967;-89
2023/09/21 10:59:31;;;;;;;;;;;;;;;;;;6275918;22;20329;-88
2023/09/21 11:01:57;;;;;;;;;;;;;;;;;;6329222;22;19957;-87
2023/09/21 11:04:23;;;;;;;;;;;;;;;;;;6326147;22;19918;-87
2023/09/21 11:06:49;;;;;;;;;;;;;;;;;;6275934;22;20443;-87
2023/09/21 11:09:15;;;;;;;;;;;;;;;;;;6303842;22;20277;-87
2023/09/21 11:11:42;;;;;;;;;;;;;;;;;;6327735;22;20118;-87
2023/09/21 11:14:08;;;;;;;;;;;;;;;;;;6328133;22;19918;-87
2023/09/21 11:16:34;;;;;;;;;;;;;;;;;;6297558;22;20487;-87
2023/09/21 11:19:00;;;;;;;;;;;;;;;;;;6276268;22;19926;-87
2023/09/21 11:21:26;;;;;;;;;;;;;;;;;;6328148;22;19918;-87
2023/09/21 11:23:53;;;;;;;;;;;;;;;;;;6325714;22;20311;-87
2023/09/21 11:26:22;;;;;;;;;;;;;;;;;;6301443;22;19930;-87
2023/09/21 11:28:48;;;;;;;;;;;;;;;;;;6300849;22;19918;-88
2023/09/21 11:31:14;;;;;;;;;;;;;;;;;;6275935;22;20425;-87
2023/09/21 11:33:40;;;;;;;;;;;;;;;;;;6298931;22;20296;-89
2023/09/21 11:36:06;;;;;;;;;;;;;;;;;;6300566;22;19946;-88
2023/09/21 11:38:36;;;;;;;;;;;;;;;;;;6298045;22;19926;-88
2023/09/21 11:41:01;;;;;;;;;;;;;;;;;;6275512;22;19914;-88
2023/09/21 11:43:29;;;;;;;;;;;;;;;;;;6299833;22;20347;-88
2023/09/21 11:45:55;;;;;;;;;;;;;;;;;;6300980;22;19919;-88
2023/09/21 11:48:23;;;;;;;;;;;;;;;;;;6276717;22;19915;-87
2023/09/21 11:50:49;;;;;;;;;;;;;;;;;;6301936;22;19925;-88
2023/09/21 11:53:19;;;;;;;;;;;;;;;;;;6303302;22;19915;-87
2023/09/21 11:55:46;;;;;;;;;;;;;;;;;;6299176;22;19914;-88
2023/09/21 11:58:12;;;;;;;;;;;;;;;;;;6300698;22;19914;-88
2023/09/21 12:00:44;;;;;;;;;;;;;;;;;;6299965;22;19919;-87
2023/09/21 12:03:12;;;;;;;;;;;;;;;;;;6274560;22;19929;-87
2023/09/21 12:05:40;;;;;;;;;;;;;;;;;;6271442;22;19922;-88
2023/09/21 12:08:06;;;;;;;;;;;;;;;;;;6330195;22;19919;-87
2023/09/21 12:10:32;;;;;;;;;;;;;;;;;;6326129;22;19996;-87
2023/09/21 12:12:58;;;;;;;;;;;;;;;;;;6274542;22;19921;-87
2023/09/21 12:15:25;;;;;;;;;;;;;;;;;;6298624;22;19919;-87
2023/09/21 12:17:51;;;;;;;;;;;;;;;;;;6302177;22;19914;-87
2023/09/21 12:20:18;;;;;;;;;;;;;;;;;;6275945;22;19918;-86
2023/09/21 12:22:44;;;;;;;;;;;;;;;;;;6273831;22;20021;-87
2023/09/21 12:25:10;;;;;;;;;;;;;;;;;;6303180;22;19927;-87
2023/09/21 12:27:38;;;;;;;;;;;;;;;;;;6299996;22;19915;-87
2023/09/21 12:30:04;;;;;;;;;;;;;;;;;;6301643;22;19918;-87
2023/09/21 12:32:31;;;;;;;;;;;;;;;;;;6294208;22;20022;-87
2023/09/21 12:34:57;;;;;;;;;;;;;;;;;;6301257;22;19942;-87
2023/09/21 12:37:24;;;;;;;;;;;;;;;;;;6273406;22;20362;-88
2023/09/21 12:39:52;;;;;;;;;;;;;;;;;;6300022;22;19929;-87
2023/09/21 12:42:19;;;;;;;;;;;;;;;;;;6273715;22;19963;-87
2023/09/21 12:44:45;;;;;;;;;;;;;;;;;;6299806;22;20337;-87
2023/09/21 12:47:11;;;;;;;;;;;;;;;;;;6301486;22;19967;-87
2023/09/21 12:49:37;;;;;;;;;;;;;;;;;;6273380;22;19936;-87
2023/09/21 12:52:03;;;;;;;;;;;;;;;;;;6299032;22;19918;-87
2023/09/21 12:54:29;;;;;;;;;;;;;;;;;;6298951;22;19968;-87
2023/09/21 12:56:55;;;;;;;;;;;;;;;;;;6301986;22;19922;-87
2023/09/21 12:59:21;;;;;;;;;;;;;;;;;;6300788;22;19918;-87
2023/09/21 13:01:52;;;;;;;;;;;;;;;;;;6274167;22;20441;-87
2023/09/21 13:04:18;;;;;;;;;;;;;;;;;;6300425;22;19921;-86
2023/09/21 13:06:44;;;;;;;;;;;;;;;;;;6295391;22;20283;-87
2023/09/21 13:09:10;;;;;;;;;;;;;;;;;;6273173;22;19966;-87
2023/09/21 13:11:36;;;;;;;;;;;;;;;;;;6299606;22;19985;-87
2023/09/21 13:14:03;;;;;;;;;;;;;;;;;;6277819;22;19992;-87
2023/09/21 13:16:29;;;;;;;;;;;;;;;;;;6272636;22;19918;-87
2023/09/21 13:18:55;;;;;;;;;;;;;;;;;;6275389;22;20013;-87
2023/09/21 13:21:21;;;;;;;;;;;;;;;;;;6276289;22;19957;-87
2023/09/21 13:23:48;;;;;;;;;;;;;;;;;;6277006;22;20283;-87
2023/09/21 13:26:14;;;;;;;;;;;;;;;;;;6277289;22;19922;-87
2023/09/21 13:28:40;;;;;;;;;;;;;;;;;;6328105;22;19919;-87
2023/09/21 13:31:09;;;;;;;;;;;;;;;;;;6277216;22;19922;-87
2023/09/21 13:33:36;;;;;;;;;;;;;;;;;;6298891;22;19982;-87
2023/09/21 13:36:03;;;;;;;;;;;;;;;;;;6277331;22;19919;-87
2023/09/21 13:38:29;;;;;;;;;;;;;;;;;;6274846;22;19918;-87
2023/09/21 13:40:55;;;;;;;;;;;;;;;;;;6328543;22;20204;-87
2023/09/21 13:43:23;;;;;;;;;;;;;;;;;;6302344;22;19919;-87
2023/09/21 13:45:49;;;;;;;;;;;;;;;;;;6277920;22;19930;-86
2023/09/21 13:48:16;;;;;;;;;;;;;;;;;;6300205;22;19922;-87
2023/09/21 13:50:42;;;;;;;;;;;;;;;;;;6327477;22;19987;-88
2023/09/21 13:53:08;;;;;;;;;;;;;;;;;;6299229;22;19922;-87
2023/09/21 13:55:34;;;;;;;;;;;;;;;;;;6299855;22;20083;-87
2023/09/21 13:58:00;;;;;;;;;;;;;;;;;;6329498;22;19923;-87
2023/09/21 14:00:26;;;;;;;;;;;;;;;;;;6297916;22;20004;-87
2023/09/21 14:02:53;;;;;;;;;;;;;;;;;;6273533;22;19918;-86
2023/09/21 14:05:22;;;;;;;;;;;;;;;;;;6270496;22;20303;-87
2023/09/21 14:07:51;;;;;;;;;;;;;;;;;;6298641;22;20373;-86
2023/09/21 14:10:17;;;;;;;;;;;;;;;;;;6276161;22;20134;-86
2023/09/21 14:12:46;;;;;;;;;;;;;;;;;;6293646;22;19925;-85
2023/09/21 14:15:13;;;;;;;;;;;;;;;;;;6271731;22;19990;-86
2023/09/21 14:17:39;;;;;;;;;;;;;;;;;;6283139;22;20299;-83
2023/09/21 14:20:08;;;;;;;;;;;;;;;;;;6292419;22;19925;-82
2023/09/21 14:22:37;;;;;;;;;;;;;;;;;;6288240;22;20021;-82
2023/09/21 14:25:06;;;;;;;;;;;;;;;;;;6290153;22;20021;-84
2023/09/21 14:27:32;;;;;;;;;;;;;;;;;;6287630;22;20006;-83
2023/09/21 14:29:58;;;;;;;;;;;;;;;;;;6287808;22;19919;-83
2023/09/21 14:32:27;;;;;;;;;;;;;;;;;;6286535;22;19934;-83
2023/09/21 14:34:53;;;;;;;;;;;;;;;;;;6283551;22;19950;-83
2023/09/21 14:37:19;;;;;;;;;;;;;;;;;;6286490;22;19926;-84
2023/09/21 14:39:45;;;;;;;;;;;;;;;;;;6283642;22;20605;-84
2023/09/21 14:48:08;;;;;;;;;;;;;;;;;;6259649;22;20653;-85
2023/09/21 14:54:16;;;;;;;;;;;;;;;;;;;;;
2023/09/21 14:57:30;;;;;;;;;;;;;;;;;;;;;
2023/09/21 15:03:37;;;;;;;;;;;;;;;;;;;;;
2023/09/21 15:12:18;;;;;;;;;;;;;;;;;;6134143;23;19920;-86
2023/09/21 15:24:38;;;;;;;;;;;;;;;;;;6234517;22;19923;-85
2023/09/21 15:27:03;;;;;;;;;;;;;;;;;;6290315;22;20351;-84
2023/09/21 15:29:41;;;;;;;;;;;;;;;;;;6281183;22;19919;-85
2023/09/21 15:32:12;;;;;;;;;;;;;;;;;;6284144;22;20232;-85
2023/09/21 15:34:59;;;;;;;;;;;;;;;;;;6302412;22;20346;-84
2023/09/21 15:40:32;;;;;;;;;;;;;;;;;;6288125;22;19965;-84
2023/09/21 15:46:12;;;;;;;;;;;;;;;;;;6285611;22;19922;-85
2023/09/21 15:48:55;;;;;;;;;;;;;;;;;;6290564;22;19919;-85
2023/09/21 15:54:36;;;;;;;;;;;;;;;;;;6299217;22;19963;-85
2023/09/21 15:57:30;;;;;;;;;;;;;;;;;;6269894;22;19922;-84
2023/09/21 15:59:56;;;;;;;;;;;;;;;;;;6290561;22;19918;-84
2023/09/21 16:05:29;;;;;;;;;;;;;;;;;;6282566;22;19926;-84
2023/09/21 16:08:15;;;;;;;;;;;;;;;;;;6297484;22;19949;-85
2023/09/21 16:10:41;;;;;;;;;;;;;;;;;;6260183;22;20419;-85
2023/09/21 16:13:28;;;;;;;;;;;;;;;;;;6255816;22;19930;-85
2023/09/21 16:16:02;;;;;;;;;;;;;;;;;;6260254;22;19919;-85
2023/09/21 16:21:29;;;;;;;;;;;;;;;;;;6264994;22;20343;-86
2023/09/21 16:24:23;;;;;;;;;;;;;;;;;;6255897;22;20056;-84
2023/09/21 16:27:10;;;;;;;;;;;;;;;;;;;;;
2023/09/21 16:29:37;;;;;;;;;;;;;;;;;;6259666;22;20260;-85
2023/09/21 16:32:11;;;;;;;;;;;;;;;;;;6266623;22;19994;-84
2023/09/21 16:34:56;;;;;;;;;;;;;;;;;;6286049;22;19915;-84
2023/09/21 16:40:27;;;;;;;;;;;;;;;;;;6196024;23;19930;-84
2023/09/21 16:42:53;;;;;;;;;;;;;;;;;;6173819;23;19919;-84
2023/09/21 16:45:31;;;;;;;;;;;;;;;;;;6215002;22;19919;-84
2023/09/21 16:48:10;;;;;;;;;;;;;;;;;;6289566;22;19923;-84
2023/09/21 16:50:37;;;;;;;;;;;;;;;;;;6288005;22;19929;-84
2023/09/21 16:53:40;;;;;;;;;;;;;;;;;;;;;
2023/09/21 16:56:12;;;;;;;;;;;;;;;;;;6285958;22;19922;-84
2023/09/21 16:58:55;;;;;;;;;;;;;;;;;;6284818;22;19923;-84
2023/09/21 17:01:27;;;;;;;;;;;;;;;;;;6287953;22;19993;-84
2023/09/21 17:04:03;;;;;;;;;;;;;;;;;;6279554;22;19979;-84
2023/09/21 17:06:32;;;;;;;;;;;;;;;;;;6286364;22;20298;-84
2023/09/21 17:09:05;;;;;;;;;;;;;;;;;;6291439;22;19973;-84
2023/09/21 17:11:37;;;;;;;;;;;;;;;;;;6286970;22;19946;-84
2023/09/21 17:14:03;;;;;;;;;;;;;;;;;;6287808;22;19915;-83
2023/09/21 17:16:51;;;;;;;;;;;;;;;;;;6287188;22;19923;-84
2023/09/21 17:23:01;;;;;;;;;;;;;;;;;;6255463;22;19930;-84
2023/09/21 17:25:47;;;;;;;;;;;;;;;;;;;;;
2023/09/21 17:28:32;;;;;;;;;;;;;;;;;;6255016;22;19919;-84
2023/09/21 17:31:08;;;;;;;;;;;;;;;;;;6232596;22;19919;-83
2023/09/21 17:33:49;;;;;;;;;;;;;;;;;;6226535;22;19929;-84
2023/09/21 17:36:28;;;;;;;;;;;;;;;;;;6231644;22;19919;-84
2023/09/21 17:39:16;;;;;;;;;;;;;;;;;;6233589;22;19939;-84
2023/09/21 17:41:46;;;;;;;;;;;;;;;;;;6231065;22;19919;-84
2023/09/21 17:44:17;;;;;;;;;;;;;;;;;;6256590;22;19915;-84
2023/09/21 17:46:46;;;;;;;;;;;;;;;;;;6229546;22;19934;-84
2023/09/21 17:49:30;;;;;;;;;;;;;;;;;;6229852;22;19915;-84
2023/09/21 17:51:59;;;;;;;;;;;;;;;;;;6227061;22;19920;-84
2023/09/21 17:54:38;;;;;;;;;;;;;;;;;;6232915;22;19971;-84
2023/09/21 17:57:07;;;;;;;;;;;;;;;;;;6236539;22;20419;-85
2023/09/21 17:59:52;;;;;;;;;;;;;;;;;;6232946;22;19934;-84
2023/09/21 18:02:24;;;;;;;;;;;;;;;;;;6233069;22;19993;-85
2023/09/21 18:04:50;;;;;;;;;;;;;;;;;;6234134;22;20450;-84
2023/09/21 18:07:18;;;;;;;;;;;;;;;;;;6228482;22;19930;-84
2023/09/21 18:10:15;;;;;;;;;;;;;;;;;;6261202;22;19919;-84
2023/09/21 18:12:54;;;;;;;;;;;;;;;;;;6231985;22;19919;-84
2023/09/21 18:15:49;;;;;;;;;;;;;;;;;;6230164;22;19993;-84
2023/09/21 18:18:27;;;;;;;;;;;;;;;;;;6233956;22;19977;-85
2023/09/21 18:26:54;;;;;;;;;;;;;;;;;;6229002;22;19931;-86
2023/09/21 18:47:37;;;;;;;;;;;;;;;;;;;;;
2023/09/21 18:56:14;;;;;;;;;;;;;;;;;;6043897;23;20354;-85
2023/09/21 18:59:02;;;;;;;;;;;;;;;;;;6181445;23;20443;-85
2023/09/21 19:01:54;;;;;;;;;;;;;;;;;;6166902;23;19920;-85
2023/09/21 19:10:55;;;;;;;;;;;;;;;;;;6074973;23;19921;-84
2023/09/21 19:19:41;;;;;;;;;;;;;;;;;;6276451;22;20121;-85
2023/09/21 19:28:03;;;;;;;;;;;;;;;;;;6227529;22;19967;-84
2023/09/21 19:30:46;;;;;;;;;;;;;;;;;;6291440;22;19926;-84
2023/09/21 19:33:22;;;;;;;;;;;;;;;;;;;;;
2023/09/21 19:35:54;;;;;;;;;;;;;;;;;;6292202;22;20890;-85
2023/09/21 19:38:37;;;;;;;;;;;;;;;;;;6288132;22;19918;-84
2023/09/21 19:41:16;;;;;;;;;;;;;;;;;;6295639;22;20021;-84
2023/09/21 19:44:11;;;;;;;;;;;;;;;;;;6290646;22;19919;-84
2023/09/21 19:46:34;;;;;;;;;;;;;;;;;;6286358;22;20345;-85
2023/09/21 19:49:11;;;;;;;;;;;;;;;;;;6269098;22;19922;-84
2023/09/21 19:58:02;;;;;;;;;;;;;;;;;;6176875;23;19993;-85
2023/09/21 20:00:30;;;;;;;;;;;;;;;;;;6173022;23;20013;-85
2023/09/21 20:03:01;;;;;;;;;;;;;;;;;;6197724;23;19955;-84
2023/09/21 20:05:33;;;;;;;;;;;;;;;;;;6194740;22;19918;-84
2023/09/21 20:08:08;;;;;;;;;;;;;;;;;;6268316;22;19933;-84